sensor_id;sensor_type;location;lat;lon;timestamp;P1;durP1;ratioP1;P2;durP2;ratioP2
793;SDS011;380;48.738;9.214;2023-08-06T00:02:00;6.47;;;5.10;;
793;SDS011;380;48.738;9.214;2023-08-06T00:04:26;7.18;;;5.50;;
793;SDS011;380;48.738;9.214;2023-08-06T00:06:52;6.88;;;6.18;;
793;SDS011;380;48.738;9.214;2023-08-06T00:09:18;6.22;;;5.63;;
793;SDS011;380;48.738;9.214;2023-08-06T00:11:44;6.82;;;5.85;;
793;SDS011;380;48.738;9.214;2023-08-06T00:14:11;5.78;;;5.18;;
793;SDS011;380;48.738;9.214;2023-08-06T00:16:40;6.75;;;5.88;;
793;SDS011;380;48.738;9.214;2023-08-06T00:19:06;9.95;;;6.07;;
793;SDS011;380;48.738;9.214;2023-08-06T00:21:32;7.60;;;6.28;;
793;SDS011;380;48.738;9.214;2023-08-06T00:23:57;6.93;;;6.22;;
793;SDS011;380;48.738;9.214;2023-08-06T00:26:23;7.82;;;6.32;;
793;SDS011;380;48.738;9.214;2023-08-06T00:28:49;8.07;;;7.22;;
793;SDS011;380;48.738;9.214;2023-08-06T00:31:15;8.05;;;7.13;;
793;SDS011;380;48.738;9.214;2023-08-06T00:33:41;7.85;;;7.05;;
793;SDS011;380;48.738;9.214;2023-08-06T00:36:07;9.73;;;8.75;;
793;SDS011;380;48.738;9.214;2023-08-06T00:38:33;9.20;;;7.82;;
793;SDS011;380;48.738;9.214;2023-08-06T00:40:59;10.80;;;8.52;;
793;SDS011;380;48.738;9.214;2023-08-06T00:43:25;9.38;;;8.18;;
793;SDS011;380;48.738;9.214;2023-08-06T00:45:51;10.75;;;8.23;;
793;SDS011;380;48.738;9.214;2023-08-06T00:48:17;11.95;;;9.73;;
793;SDS011;380;48.738;9.214;2023-08-06T00:50:43;7.15;;;6.45;;
793;SDS011;380;48.738;9.214;2023-08-06T00:53:09;6.00;;;4.70;;
793;SDS011;380;48.738;9.214;2023-08-06T00:55:35;5.03;;;3.95;;
793;SDS011;380;48.738;9.214;2023-08-06T00:58:01;4.32;;;3.13;;
793;SDS011;380;48.738;9.214;2023-08-06T01:00:27;3.95;;;2.95;;
793;SDS011;380;48.738;9.214;2023-08-06T01:02:53;3.28;;;2.60;;
793;SDS011;380;48.738;9.214;2023-08-06T01:05:20;3.67;;;2.38;;
793;SDS011;380;48.738;9.214;2023-08-06T01:15:20;4.82;;;2.40;;
793;SDS011;380;48.738;9.214;2023-08-06T01:17:47;2.75;;;1.88;;
793;SDS011;380;48.738;9.214;2023-08-06T01:20:13;3.35;;;2.17;;
793;SDS011;380;48.738;9.214;2023-08-06T01:22:39;4.55;;;2.55;;
793;SDS011;380;48.738;9.214;2023-08-06T01:25:05;2.50;;;1.65;;
793;SDS011;380;48.738;9.214;2023-08-06T01:27:39;3.28;;;2.58;;
793;SDS011;380;48.738;9.214;2023-08-06T01:30:12;3.67;;;2.80;;
793;SDS011;380;48.738;9.214;2023-08-06T01:32:39;3.85;;;2.70;;
793;SDS011;380;48.738;9.214;2023-08-06T01:35:08;3.17;;;2.53;;
793;SDS011;380;48.738;9.214;2023-08-06T01:37:35;3.38;;;2.50;;
793;SDS011;380;48.738;9.214;2023-08-06T01:40:05;3.20;;;2.03;;
793;SDS011;380;48.738;9.214;2023-08-06T01:42:31;3.58;;;2.60;;
793;SDS011;380;48.738;9.214;2023-08-06T01:44:57;3.35;;;2.58;;
793;SDS011;380;48.738;9.214;2023-08-06T01:47:23;3.63;;;2.42;;
793;SDS011;380;48.738;9.214;2023-08-06T01:49:48;3.30;;;2.47;;
793;SDS011;380;48.738;9.214;2023-08-06T01:52:14;4.68;;;2.85;;
793;SDS011;380;48.738;9.214;2023-08-06T01:54:40;3.00;;;2.25;;
793;SDS011;380;48.738;9.214;2023-08-06T01:57:06;6.68;;;2.83;;
793;SDS011;380;48.738;9.214;2023-08-06T01:59:32;3.35;;;2.83;;
793;SDS011;380;48.738;9.214;2023-08-06T02:01:58;3.67;;;2.63;;
793;SDS011;380;48.738;9.214;2023-08-06T02:04:24;3.08;;;2.00;;
793;SDS011;380;48.738;9.214;2023-08-06T02:06:50;2.70;;;2.22;;
793;SDS011;380;48.738;9.214;2023-08-06T02:09:16;3.60;;;2.50;;
793;SDS011;380;48.738;9.214;2023-08-06T02:11:42;2.92;;;2.22;;
793;SDS011;380;48.738;9.214;2023-08-06T02:14:08;3.35;;;2.28;;
793;SDS011;380;48.738;9.214;2023-08-06T02:16:34;3.80;;;2.90;;
793;SDS011;380;48.738;9.214;2023-08-06T02:19:00;3.28;;;2.67;;
793;SDS011;380;48.738;9.214;2023-08-06T02:21:26;3.28;;;2.70;;
793;SDS011;380;48.738;9.214;2023-08-06T02:23:52;3.53;;;2.83;;
793;SDS011;380;48.738;9.214;2023-08-06T02:26:17;3.47;;;2.53;;
793;SDS011;380;48.738;9.214;2023-08-06T02:28:43;4.53;;;2.20;;
793;SDS011;380;48.738;9.214;2023-08-06T02:31:09;2.75;;;2.28;;
793;SDS011;380;48.738;9.214;2023-08-06T02:33:35;3.65;;;2.45;;
793;SDS011;380;48.738;9.214;2023-08-06T02:36:01;3.70;;;2.88;;
793;SDS011;380;48.738;9.214;2023-08-06T02:38:31;2.50;;;1.92;;
793;SDS011;380;48.738;9.214;2023-08-06T02:40:57;2.67;;;2.22;;
793;SDS011;380;48.738;9.214;2023-08-06T02:43:23;3.00;;;1.92;;
793;SDS011;380;48.738;9.214;2023-08-06T02:45:49;2.85;;;1.90;;
793;SDS011;380;48.738;9.214;2023-08-06T02:48:14;2.13;;;1.73;;
793;SDS011;380;48.738;9.214;2023-08-06T02:50:43;6.22;;;2.40;;
793;SDS011;380;48.738;9.214;2023-08-06T02:53:09;2.60;;;1.75;;
793;SDS011;380;48.738;9.214;2023-08-06T02:55:35;2.83;;;2.15;;
793;SDS011;380;48.738;9.214;2023-08-06T02:58:01;3.33;;;1.90;;
793;SDS011;380;48.738;9.214;2023-08-06T03:00:27;2.70;;;1.88;;
793;SDS011;380;48.738;9.214;2023-08-06T03:02:53;3.15;;;1.65;;
793;SDS011;380;48.738;9.214;2023-08-06T03:05:20;2.53;;;1.83;;
793;SDS011;380;48.738;9.214;2023-08-06T03:07:46;2.60;;;2.03;;
793;SDS011;380;48.738;9.214;2023-08-06T03:10:12;2.53;;;1.65;;
793;SDS011;380;48.738;9.214;2023-08-06T03:12:38;2.45;;;1.50;;
793;SDS011;380;48.738;9.214;2023-08-06T03:15:04;2.30;;;1.48;;
793;SDS011;380;48.738;9.214;2023-08-06T03:17:30;4.82;;;2.20;;
793;SDS011;380;48.738;9.214;2023-08-06T03:19:56;7.03;;;1.52;;
793;SDS011;380;48.738;9.214;2023-08-06T03:22:22;2.47;;;1.67;;
793;SDS011;380;48.738;9.214;2023-08-06T03:24:50;3.13;;;1.48;;
793;SDS011;380;48.738;9.214;2023-08-06T03:27:16;2.85;;;1.88;;
793;SDS011;380;48.738;9.214;2023-08-06T03:29:42;2.45;;;1.65;;
793;SDS011;380;48.738;9.214;2023-08-06T03:32:08;3.38;;;1.95;;
793;SDS011;380;48.738;9.214;2023-08-06T03:34:34;2.53;;;1.42;;
793;SDS011;380;48.738;9.214;2023-08-06T03:37:00;2.63;;;1.75;;
793;SDS011;380;48.738;9.214;2023-08-06T03:39:26;2.85;;;1.98;;
793;SDS011;380;48.738;9.214;2023-08-06T03:41:52;2.28;;;1.50;;
793;SDS011;380;48.738;9.214;2023-08-06T03:44:18;2.40;;;1.65;;
793;SDS011;380;48.738;9.214;2023-08-06T03:46:44;2.65;;;1.65;;
793;SDS011;380;48.738;9.214;2023-08-06T03:49:10;2.47;;;1.50;;
793;SDS011;380;48.738;9.214;2023-08-06T03:51:35;2.38;;;1.63;;
793;SDS011;380;48.738;9.214;2023-08-06T03:54:01;3.17;;;1.77;;
793;SDS011;380;48.738;9.214;2023-08-06T03:56:27;2.55;;;1.75;;
793;SDS011;380;48.738;9.214;2023-08-06T03:58:53;5.45;;;2.03;;
793;SDS011;380;48.738;9.214;2023-08-06T04:01:19;2.53;;;1.90;;
793;SDS011;380;48.738;9.214;2023-08-06T04:03:45;4.85;;;1.63;;
793;SDS011;380;48.738;9.214;2023-08-06T04:06:12;2.50;;;1.35;;
793;SDS011;380;48.738;9.214;2023-08-06T04:08:38;3.75;;;2.00;;
793;SDS011;380;48.738;9.214;2023-08-06T04:11:04;2.00;;;1.10;;
793;SDS011;380;48.738;9.214;2023-08-06T04:13:30;2.25;;;1.30;;
793;SDS011;380;48.738;9.214;2023-08-06T04:16:00;4.15;;;1.70;;
793;SDS011;380;48.738;9.214;2023-08-06T04:18:26;3.05;;;1.23;;
793;SDS011;380;48.738;9.214;2023-08-06T04:20:52;3.10;;;1.33;;
793;SDS011;380;48.738;9.214;2023-08-06T04:23:20;2.45;;;1.45;;
793;SDS011;380;48.738;9.214;2023-08-06T04:25:46;3.60;;;1.38;;
793;SDS011;380;48.738;9.214;2023-08-06T04:28:12;2.20;;;1.23;;
793;SDS011;380;48.738;9.214;2023-08-06T04:30:38;2.17;;;1.33;;
793;SDS011;380;48.738;9.214;2023-08-06T04:33:04;2.08;;;1.35;;
793;SDS011;380;48.738;9.214;2023-08-06T04:35:30;2.20;;;1.20;;
793;SDS011;380;48.738;9.214;2023-08-06T04:37:56;2.15;;;1.30;;
793;SDS011;380;48.738;9.214;2023-08-06T04:40:21;3.22;;;1.25;;
793;SDS011;380;48.738;9.214;2023-08-06T04:42:47;2.50;;;1.15;;
793;SDS011;380;48.738;9.214;2023-08-06T04:45:13;1.90;;;0.98;;
793;SDS011;380;48.738;9.214;2023-08-06T04:47:39;2.10;;;1.20;;
793;SDS011;380;48.738;9.214;2023-08-06T04:50:05;3.45;;;1.60;;
793;SDS011;380;48.738;9.214;2023-08-06T04:52:31;1.80;;;1.10;;
793;SDS011;380;48.738;9.214;2023-08-06T04:54:57;6.07;;;1.10;;
793;SDS011;380;48.738;9.214;2023-08-06T04:57:24;1.45;;;0.77;;
793;SDS011;380;48.738;9.214;2023-08-06T04:59:49;2.95;;;1.08;;
793;SDS011;380;48.738;9.214;2023-08-06T05:02:16;2.45;;;0.90;;
793;SDS011;380;48.738;9.214;2023-08-06T05:04:42;2.95;;;1.08;;
793;SDS011;380;48.738;9.214;2023-08-06T05:07:08;2.47;;;1.50;;
793;SDS011;380;48.738;9.214;2023-08-06T05:09:37;4.43;;;1.08;;
793;SDS011;380;48.738;9.214;2023-08-06T05:12:03;3.80;;;0.95;;
793;SDS011;380;48.738;9.214;2023-08-06T05:14:29;1.90;;;0.80;;
793;SDS011;380;48.738;9.214;2023-08-06T05:16:55;3.63;;;1.25;;
793;SDS011;380;48.738;9.214;2023-08-06T05:19:21;1.13;;;0.57;;
793;SDS011;380;48.738;9.214;2023-08-06T05:21:47;2.33;;;1.23;;
793;SDS011;380;48.738;9.214;2023-08-06T05:24:13;1.60;;;0.73;;
793;SDS011;380;48.738;9.214;2023-08-06T05:26:39;1.15;;;0.60;;
793;SDS011;380;48.738;9.214;2023-08-06T05:29:05;1.70;;;0.85;;
793;SDS011;380;48.738;9.214;2023-08-06T05:31:31;1.67;;;0.82;;
793;SDS011;380;48.738;9.214;2023-08-06T05:33:57;3.60;;;1.17;;
793;SDS011;380;48.738;9.214;2023-08-06T05:36:23;2.05;;;0.80;;
793;SDS011;380;48.738;9.214;2023-08-06T05:38:49;2.03;;;0.77;;
793;SDS011;380;48.738;9.214;2023-08-06T05:41:15;2.38;;;0.82;;
793;SDS011;380;48.738;9.214;2023-08-06T05:43:41;1.48;;;0.60;;
793;SDS011;380;48.738;9.214;2023-08-06T05:46:06;1.25;;;0.57;;
793;SDS011;380;48.738;9.214;2023-08-06T05:48:32;3.38;;;1.00;;
793;SDS011;380;48.738;9.214;2023-08-06T05:50:58;1.10;;;0.50;;
793;SDS011;380;48.738;9.214;2023-08-06T05:53:24;1.10;;;0.57;;
793;SDS011;380;48.738;9.214;2023-08-06T05:55:50;1.23;;;0.55;;
793;SDS011;380;48.738;9.214;2023-08-06T05:58:16;0.73;;;0.50;;
793;SDS011;380;48.738;9.214;2023-08-06T06:00:42;0.75;;;0.32;;
793;SDS011;380;48.738;9.214;2023-08-06T06:03:08;1.95;;;0.63;;
793;SDS011;380;48.738;9.214;2023-08-06T06:05:37;2.15;;;0.60;;
793;SDS011;380;48.738;9.214;2023-08-06T06:08:03;6.47;;;0.88;;
793;SDS011;380;48.738;9.214;2023-08-06T06:10:29;1.02;;;0.43;;
793;SDS011;380;48.738;9.214;2023-08-06T06:12:55;1.13;;;0.40;;
793;SDS011;380;48.738;9.214;2023-08-06T06:15:21;0.93;;;0.55;;
793;SDS011;380;48.738;9.214;2023-08-06T06:17:47;0.85;;;0.50;;
793;SDS011;380;48.738;9.214;2023-08-06T06:20:13;0.82;;;0.43;;
793;SDS011;380;48.738;9.214;2023-08-06T06:22:39;2.22;;;0.65;;
793;SDS011;380;48.738;9.214;2023-08-06T06:25:05;1.88;;;0.63;;
793;SDS011;380;48.738;9.214;2023-08-06T06:27:31;0.70;;;0.30;;
793;SDS011;380;48.738;9.214;2023-08-06T06:29:57;1.33;;;0.65;;
793;SDS011;380;48.738;9.214;2023-08-06T06:32:23;0.80;;;0.40;;
793;SDS011;380;48.738;9.214;2023-08-06T06:34:49;0.80;;;0.32;;
793;SDS011;380;48.738;9.214;2023-08-06T06:37:15;1.25;;;0.60;;
793;SDS011;380;48.738;9.214;2023-08-06T06:39:41;2.45;;;0.52;;
793;SDS011;380;48.738;9.214;2023-08-06T06:42:07;1.60;;;0.60;;
793;SDS011;380;48.738;9.214;2023-08-06T06:44:33;0.88;;;0.45;;
793;SDS011;380;48.738;9.214;2023-08-06T06:46:59;0.73;;;0.32;;
793;SDS011;380;48.738;9.214;2023-08-06T06:49:25;0.85;;;0.50;;
793;SDS011;380;48.738;9.214;2023-08-06T06:51:51;2.30;;;0.50;;
793;SDS011;380;48.738;9.214;2023-08-06T06:54:17;0.80;;;0.35;;
793;SDS011;380;48.738;9.214;2023-08-06T06:56:43;1.00;;;0.47;;
793;SDS011;380;48.738;9.214;2023-08-06T06:59:09;0.88;;;0.40;;
793;SDS011;380;48.738;9.214;2023-08-06T07:01:34;3.22;;;0.63;;
793;SDS011;380;48.738;9.214;2023-08-06T07:04:00;1.35;;;0.70;;
793;SDS011;380;48.738;9.214;2023-08-06T07:06:29;1.23;;;0.55;;
793;SDS011;380;48.738;9.214;2023-08-06T07:08:55;1.38;;;0.60;;
793;SDS011;380;48.738;9.214;2023-08-06T07:11:21;0.85;;;0.38;;
793;SDS011;380;48.738;9.214;2023-08-06T07:13:49;2.00;;;0.38;;
793;SDS011;380;48.738;9.214;2023-08-06T07:16:15;1.05;;;0.57;;
793;SDS011;380;48.738;9.214;2023-08-06T07:18:41;0.45;;;0.30;;
793;SDS011;380;48.738;9.214;2023-08-06T07:21:07;0.60;;;0.28;;
793;SDS011;380;48.738;9.214;2023-08-06T07:23:33;1.52;;;0.60;;
793;SDS011;380;48.738;9.214;2023-08-06T07:25:59;1.35;;;0.38;;
793;SDS011;380;48.738;9.214;2023-08-06T07:28:25;1.08;;;0.30;;
793;SDS011;380;48.738;9.214;2023-08-06T07:30:51;1.08;;;0.38;;
793;SDS011;380;48.738;9.214;2023-08-06T07:33:17;2.40;;;0.30;;
793;SDS011;380;48.738;9.214;2023-08-06T07:35:43;1.75;;;0.47;;
793;SDS011;380;48.738;9.214;2023-08-06T07:38:09;0.60;;;0.30;;
793;SDS011;380;48.738;9.214;2023-08-06T07:40:35;0.55;;;0.20;;
793;SDS011;380;48.738;9.214;2023-08-06T07:43:02;0.32;;;0.10;;
793;SDS011;380;48.738;9.214;2023-08-06T07:45:32;1.38;;;0.50;;
793;SDS011;380;48.738;9.214;2023-08-06T07:47:58;0.25;;;0.10;;
793;SDS011;380;48.738;9.214;2023-08-06T07:50:23;1.80;;;0.32;;
793;SDS011;380;48.738;9.214;2023-08-06T07:52:49;1.77;;;0.47;;
793;SDS011;380;48.738;9.214;2023-08-06T07:55:15;0.77;;;0.10;;
793;SDS011;380;48.738;9.214;2023-08-06T07:57:41;0.43;;;0.20;;
793;SDS011;380;48.738;9.214;2023-08-06T08:00:07;0.52;;;0.28;;
793;SDS011;380;48.738;9.214;2023-08-06T08:02:34;0.10;;;0.10;;
793;SDS011;380;48.738;9.214;2023-08-06T08:05:00;0.22;;;0.10;;
793;SDS011;380;48.738;9.214;2023-08-06T08:07:26;0.28;;;0.10;;
793;SDS011;380;48.738;9.214;2023-08-06T08:09:55;0.08;;;0.00;;
793;SDS011;380;48.738;9.214;2023-08-06T08:12:21;0.10;;;0.10;;
793;SDS011;380;48.738;9.214;2023-08-06T08:14:47;0.10;;;0.10;;
793;SDS011;380;48.738;9.214;2023-08-06T08:17:13;0.00;;;0.00;;
793;SDS011;380;48.738;9.214;2023-08-06T08:19:39;3.33;;;0.10;;
793;SDS011;380;48.738;9.214;2023-08-06T08:22:05;0.30;;;0.20;;
793;SDS011;380;48.738;9.214;2023-08-06T08:24:31;1.92;;;0.08;;
793;SDS011;380;48.738;9.214;2023-08-06T08:26:57;0.00;;;0.00;;
793;SDS011;380;48.738;9.214;2023-08-06T08:29:23;0.80;;;0.13;;
793;SDS011;380;48.738;9.214;2023-08-06T08:31:49;0.00;;;0.00;;
793;SDS011;380;48.738;9.214;2023-08-06T08:34:16;0.80;;;0.13;;
793;SDS011;380;48.738;9.214;2023-08-06T08:36:42;0.10;;;0.00;;
793;SDS011;380;48.738;9.214;2023-08-06T08:39:08;0.00;;;0.00;;
793;SDS011;380;48.738;9.214;2023-08-06T08:41:36;0.00;;;0.00;;
793;SDS011;380;48.738;9.214;2023-08-06T08:44:02;0.30;;;0.10;;
793;SDS011;380;48.738;9.214;2023-08-06T08:46:30;0.10;;;0.00;;
793;SDS011;380;48.738;9.214;2023-08-06T08:49:00;0.00;;;0.00;;
793;SDS011;380;48.738;9.214;2023-08-06T08:51:27;0.00;;;0.00;;
793;SDS011;380;48.738;9.214;2023-08-06T08:53:53;0.00;;;0.00;;
793;SDS011;380;48.738;9.214;2023-08-06T08:56:24;0.00;;;0.00;;
793;SDS011;380;48.738;9.214;2023-08-06T08:58:50;0.00;;;0.00;;
793;SDS011;380;48.738;9.214;2023-08-06T09:01:18;0.10;;;0.00;;
793;SDS011;380;48.738;9.214;2023-08-06T09:03:44;0.10;;;0.00;;
793;SDS011;380;48.738;9.214;2023-08-06T09:06:11;0.03;;;0.00;;
793;SDS011;380;48.738;9.214;2023-08-06T09:08:39;0.00;;;0.00;;
793;SDS011;380;48.738;9.214;2023-08-06T09:11:10;0.00;;;0.00;;
793;SDS011;380;48.738;9.214;2023-08-06T09:13:36;0.00;;;0.00;;
793;SDS011;380;48.738;9.214;2023-08-06T09:16:03;0.00;;;0.00;;
793;SDS011;380;48.738;9.214;2023-08-06T09:18:29;0.00;;;0.00;;
793;SDS011;380;48.738;9.214;2023-08-06T09:20:56;0.10;;;0.10;;
793;SDS011;380;48.738;9.214;2023-08-06T09:23:29;0.00;;;0.00;;
793;SDS011;380;48.738;9.214;2023-08-06T09:25:56;0.10;;;0.00;;
793;SDS011;380;48.738;9.214;2023-08-06T09:28:22;2.53;;;0.10;;
793;SDS011;380;48.738;9.214;2023-08-06T09:30:49;0.43;;;0.10;;
793;SDS011;380;48.738;9.214;2023-08-06T09:33:19;0.28;;;0.10;;
793;SDS011;380;48.738;9.214;2023-08-06T09:35:46;0.00;;;0.00;;
793;SDS011;380;48.738;9.214;2023-08-06T09:38:12;0.30;;;0.00;;
793;SDS011;380;48.738;9.214;2023-08-06T09:40:39;0.00;;;0.00;;
793;SDS011;380;48.738;9.214;2023-08-06T09:43:05;0.10;;;0.03;;
793;SDS011;380;48.738;9.214;2023-08-06T09:45:32;0.38;;;0.10;;
793;SDS011;380;48.738;9.214;2023-08-06T09:47:58;0.20;;;0.10;;
793;SDS011;380;48.738;9.214;2023-08-06T09:50:31;0.10;;;0.00;;
793;SDS011;380;48.738;9.214;2023-08-06T09:52:57;0.10;;;0.00;;
793;SDS011;380;48.738;9.214;2023-08-06T09:55:24;0.10;;;0.08;;
793;SDS011;380;48.738;9.214;2023-08-06T09:57:51;0.38;;;0.10;;
793;SDS011;380;48.738;9.214;2023-08-06T10:00:17;0.00;;;0.00;;
793;SDS011;380;48.738;9.214;2023-08-06T10:02:43;0.00;;;0.00;;
793;SDS011;380;48.738;9.214;2023-08-06T10:05:09;0.13;;;0.10;;
793;SDS011;380;48.738;9.214;2023-08-06T10:07:36;0.15;;;0.00;;
793;SDS011;380;48.738;9.214;2023-08-06T10:10:04;0.00;;;0.00;;
793;SDS011;380;48.738;9.214;2023-08-06T10:12:32;0.10;;;0.05;;
793;SDS011;380;48.738;9.214;2023-08-06T10:14:59;0.88;;;0.13;;
793;SDS011;380;48.738;9.214;2023-08-06T10:17:26;0.00;;;0.00;;
793;SDS011;380;48.738;9.214;2023-08-06T10:19:53;0.08;;;0.08;;
793;SDS011;380;48.738;9.214;2023-08-06T10:22:23;0.10;;;0.10;;
793;SDS011;380;48.738;9.214;2023-08-06T10:27:21;0.52;;;0.13;;
793;SDS011;380;48.738;9.214;2023-08-06T10:29:48;0.80;;;0.10;;
793;SDS011;380;48.738;9.214;2023-08-06T10:32:17;0.00;;;0.00;;
793;SDS011;380;48.738;9.214;2023-08-06T10:34:58;0.50;;;0.10;;
793;SDS011;380;48.738;9.214;2023-08-06T10:37:35;0.10;;;0.00;;
793;SDS011;380;48.738;9.214;2023-08-06T10:40:02;0.00;;;0.00;;
793;SDS011;380;48.738;9.214;2023-08-06T10:42:28;0.10;;;0.03;;
793;SDS011;380;48.738;9.214;2023-08-06T10:47:40;0.05;;;0.00;;
793;SDS011;380;48.738;9.214;2023-08-06T10:50:06;0.20;;;0.10;;
793;SDS011;380;48.738;9.214;2023-08-06T10:52:33;0.00;;;0.00;;
793;SDS011;380;48.738;9.214;2023-08-06T10:54:59;0.10;;;0.00;;
793;SDS011;380;48.738;9.214;2023-08-06T10:57:25;0.03;;;0.00;;
793;SDS011;380;48.738;9.214;2023-08-06T10:59:51;0.03;;;0.00;;
793;SDS011;380;48.738;9.214;2023-08-06T11:02:17;0.13;;;0.03;;
793;SDS011;380;48.738;9.214;2023-08-06T11:04:43;0.50;;;0.20;;
793;SDS011;380;48.738;9.214;2023-08-06T11:07:09;0.00;;;0.00;;
793;SDS011;380;48.738;9.214;2023-08-06T11:09:36;0.00;;;0.00;;
793;SDS011;380;48.738;9.214;2023-08-06T11:12:02;0.20;;;0.10;;
793;SDS011;380;48.738;9.214;2023-08-06T11:14:31;0.10;;;0.10;;
793;SDS011;380;48.738;9.214;2023-08-06T11:16:57;0.25;;;0.10;;
793;SDS011;380;48.738;9.214;2023-08-06T11:19:23;0.98;;;0.30;;
793;SDS011;380;48.738;9.214;2023-08-06T11:21:50;0.43;;;0.20;;
793;SDS011;380;48.738;9.214;2023-08-06T11:24:16;0.10;;;0.00;;
793;SDS011;380;48.738;9.214;2023-08-06T11:26:42;0.10;;;0.08;;
793;SDS011;380;48.738;9.214;2023-08-06T11:29:09;0.35;;;0.10;;
793;SDS011;380;48.738;9.214;2023-08-06T11:31:36;0.10;;;0.10;;
793;SDS011;380;48.738;9.214;2023-08-06T11:34:02;0.40;;;0.13;;
793;SDS011;380;48.738;9.214;2023-08-06T11:36:28;0.20;;;0.10;;
793;SDS011;380;48.738;9.214;2023-08-06T11:38:55;1.10;;;0.50;;
793;SDS011;380;48.738;9.214;2023-08-06T11:41:21;2.03;;;0.20;;
793;SDS011;380;48.738;9.214;2023-08-06T11:43:47;2.00;;;0.82;;
793;SDS011;380;48.738;9.214;2023-08-06T11:46:13;1.10;;;0.60;;
793;SDS011;380;48.738;9.214;2023-08-06T11:48:50;2.10;;;0.95;;
793;SDS011;380;48.738;9.214;2023-08-06T11:51:16;0.45;;;0.22;;
793;SDS011;380;48.738;9.214;2023-08-06T11:53:46;1.08;;;0.50;;
793;SDS011;380;48.738;9.214;2023-08-06T11:56:12;0.80;;;0.30;;
793;SDS011;380;48.738;9.214;2023-08-06T11:58:40;0.85;;;0.20;;
793;SDS011;380;48.738;9.214;2023-08-06T12:01:06;0.75;;;0.40;;
793;SDS011;380;48.738;9.214;2023-08-06T12:03:32;0.40;;;0.25;;
793;SDS011;380;48.738;9.214;2023-08-06T12:05:58;2.08;;;0.40;;
793;SDS011;380;48.738;9.214;2023-08-06T12:08:27;0.82;;;0.40;;
793;SDS011;380;48.738;9.214;2023-08-06T12:10:52;0.60;;;0.40;;
793;SDS011;380;48.738;9.214;2023-08-06T12:13:19;0.47;;;0.30;;
793;SDS011;380;48.738;9.214;2023-08-06T12:15:45;1.35;;;0.68;;
793;SDS011;380;48.738;9.214;2023-08-06T12:18:11;0.75;;;0.35;;
793;SDS011;380;48.738;9.214;2023-08-06T12:20:37;0.55;;;0.30;;
793;SDS011;380;48.738;9.214;2023-08-06T12:23:03;2.58;;;0.63;;
793;SDS011;380;48.738;9.214;2023-08-06T12:25:29;1.52;;;0.85;;
793;SDS011;380;48.738;9.214;2023-08-06T12:27:55;0.95;;;0.50;;
793;SDS011;380;48.738;9.214;2023-08-06T12:30:21;1.42;;;0.75;;
793;SDS011;380;48.738;9.214;2023-08-06T12:32:47;1.02;;;0.40;;
793;SDS011;380;48.738;9.214;2023-08-06T12:35:13;1.17;;;0.40;;
793;SDS011;380;48.738;9.214;2023-08-06T12:37:39;1.08;;;0.55;;
793;SDS011;380;48.738;9.214;2023-08-06T12:40:05;1.55;;;0.70;;
793;SDS011;380;48.738;9.214;2023-08-06T12:42:31;0.77;;;0.32;;
793;SDS011;380;48.738;9.214;2023-08-06T12:44:58;1.20;;;0.50;;
793;SDS011;380;48.738;9.214;2023-08-06T12:47:24;1.00;;;0.52;;
793;SDS011;380;48.738;9.214;2023-08-06T12:49:50;1.00;;;0.40;;
793;SDS011;380;48.738;9.214;2023-08-06T12:52:15;0.95;;;0.47;;
793;SDS011;380;48.738;9.214;2023-08-06T12:54:44;1.02;;;0.40;;
793;SDS011;380;48.738;9.214;2023-08-06T12:57:11;0.65;;;0.32;;
793;SDS011;380;48.738;9.214;2023-08-06T12:59:37;1.08;;;0.55;;
793;SDS011;380;48.738;9.214;2023-08-06T13:02:03;0.80;;;0.30;;
793;SDS011;380;48.738;9.214;2023-08-06T13:04:29;1.17;;;0.30;;
793;SDS011;380;48.738;9.214;2023-08-06T13:06:55;2.75;;;0.55;;
793;SDS011;380;48.738;9.214;2023-08-06T13:09:21;1.40;;;0.60;;
793;SDS011;380;48.738;9.214;2023-08-06T13:11:47;2.83;;;0.80;;
793;SDS011;380;48.738;9.214;2023-08-06T13:14:15;1.23;;;0.47;;
793;SDS011;380;48.738;9.214;2023-08-06T13:16:41;0.82;;;0.38;;
793;SDS011;380;48.738;9.214;2023-08-06T13:19:07;0.98;;;0.40;;
793;SDS011;380;48.738;9.214;2023-08-06T13:21:34;1.80;;;0.43;;
793;SDS011;380;48.738;9.214;2023-08-06T13:24:01;0.85;;;0.40;;
793;SDS011;380;48.738;9.214;2023-08-06T13:26:28;0.65;;;0.30;;
793;SDS011;380;48.738;9.214;2023-08-06T13:28:54;2.22;;;1.10;;
793;SDS011;380;48.738;9.214;2023-08-06T13:31:20;1.50;;;0.40;;
793;SDS011;380;48.738;9.214;2023-08-06T13:33:46;1.35;;;0.52;;
793;SDS011;380;48.738;9.214;2023-08-06T13:36:13;1.70;;;0.63;;
793;SDS011;380;48.738;9.214;2023-08-06T13:38:39;0.65;;;0.28;;
793;SDS011;380;48.738;9.214;2023-08-06T13:41:05;0.93;;;0.43;;
793;SDS011;380;48.738;9.214;2023-08-06T13:43:31;1.42;;;0.50;;
793;SDS011;380;48.738;9.214;2023-08-06T13:45:57;0.82;;;0.38;;
793;SDS011;380;48.738;9.214;2023-08-06T13:48:23;0.80;;;0.38;;
793;SDS011;380;48.738;9.214;2023-08-06T13:50:48;0.70;;;0.40;;
793;SDS011;380;48.738;9.214;2023-08-06T13:53:14;0.73;;;0.30;;
793;SDS011;380;48.738;9.214;2023-08-06T13:55:40;0.60;;;0.20;;
793;SDS011;380;48.738;9.214;2023-08-06T13:58:06;0.50;;;0.25;;
793;SDS011;380;48.738;9.214;2023-08-06T14:00:33;0.90;;;0.40;;
793;SDS011;380;48.738;9.214;2023-08-06T14:02:59;0.45;;;0.20;;
793;SDS011;380;48.738;9.214;2023-08-06T14:05:25;0.17;;;0.13;;
793;SDS011;380;48.738;9.214;2023-08-06T14:07:51;0.60;;;0.25;;
793;SDS011;380;48.738;9.214;2023-08-06T14:10:17;0.75;;;0.40;;
793;SDS011;380;48.738;9.214;2023-08-06T14:12:43;0.88;;;0.40;;
793;SDS011;380;48.738;9.214;2023-08-06T14:15:10;1.02;;;0.50;;
793;SDS011;380;48.738;9.214;2023-08-06T14:17:36;0.57;;;0.25;;
793;SDS011;380;48.738;9.214;2023-08-06T14:20:03;0.63;;;0.30;;
793;SDS011;380;48.738;9.214;2023-08-06T14:22:29;1.10;;;0.40;;
793;SDS011;380;48.738;9.214;2023-08-06T14:24:56;1.33;;;0.30;;
793;SDS011;380;48.738;9.214;2023-08-06T14:27:22;0.85;;;0.40;;
793;SDS011;380;48.738;9.214;2023-08-06T14:29:48;1.20;;;0.50;;
793;SDS011;380;48.738;9.214;2023-08-06T14:32:14;0.85;;;0.30;;
793;SDS011;380;48.738;9.214;2023-08-06T14:34:42;0.95;;;0.40;;
793;SDS011;380;48.738;9.214;2023-08-06T14:37:08;1.88;;;0.35;;
793;SDS011;380;48.738;9.214;2023-08-06T14:39:34;0.73;;;0.30;;
793;SDS011;380;48.738;9.214;2023-08-06T14:42:00;0.57;;;0.20;;
793;SDS011;380;48.738;9.214;2023-08-06T14:44:27;0.57;;;0.25;;
793;SDS011;380;48.738;9.214;2023-08-06T14:46:53;0.45;;;0.20;;
793;SDS011;380;48.738;9.214;2023-08-06T14:49:19;0.90;;;0.40;;
793;SDS011;380;48.738;9.214;2023-08-06T14:51:45;0.80;;;0.30;;
793;SDS011;380;48.738;9.214;2023-08-06T14:54:11;0.57;;;0.28;;
793;SDS011;380;48.738;9.214;2023-08-06T14:56:37;0.90;;;0.43;;
793;SDS011;380;48.738;9.214;2023-08-06T14:59:03;0.85;;;0.40;;
793;SDS011;380;48.738;9.214;2023-08-06T15:01:29;0.98;;;0.40;;
793;SDS011;380;48.738;9.214;2023-08-06T15:03:55;1.17;;;0.60;;
793;SDS011;380;48.738;9.214;2023-08-06T15:06:21;0.70;;;0.40;;
793;SDS011;380;48.738;9.214;2023-08-06T15:08:47;0.40;;;0.28;;
793;SDS011;380;48.738;9.214;2023-08-06T15:11:13;0.60;;;0.22;;
793;SDS011;380;48.738;9.214;2023-08-06T15:13:39;0.80;;;0.35;;
793;SDS011;380;48.738;9.214;2023-08-06T15:16:05;2.42;;;0.20;;
793;SDS011;380;48.738;9.214;2023-08-06T15:18:31;0.63;;;0.30;;
793;SDS011;380;48.738;9.214;2023-08-06T15:20:57;0.57;;;0.30;;
793;SDS011;380;48.738;9.214;2023-08-06T15:23:24;0.77;;;0.40;;
793;SDS011;380;48.738;9.214;2023-08-06T15:25:50;0.77;;;0.30;;
793;SDS011;380;48.738;9.214;2023-08-06T15:28:16;0.60;;;0.30;;
793;SDS011;380;48.738;9.214;2023-08-06T15:30:51;0.88;;;0.32;;
793;SDS011;380;48.738;9.214;2023-08-06T15:33:17;0.77;;;0.38;;
793;SDS011;380;48.738;9.214;2023-08-06T15:35:44;0.75;;;0.30;;
793;SDS011;380;48.738;9.214;2023-08-06T15:38:10;0.57;;;0.30;;
793;SDS011;380;48.738;9.214;2023-08-06T15:40:35;0.98;;;0.32;;
793;SDS011;380;48.738;9.214;2023-08-06T15:43:02;0.90;;;0.38;;
793;SDS011;380;48.738;9.214;2023-08-06T15:45:28;4.03;;;0.45;;
793;SDS011;380;48.738;9.214;2023-08-06T15:47:54;0.73;;;0.32;;
793;SDS011;380;48.738;9.214;2023-08-06T15:50:21;0.40;;;0.20;;
793;SDS011;380;48.738;9.214;2023-08-06T15:52:47;0.95;;;0.40;;